createdAt,value
2019-05-05T00:01:49.690Z,4.41
2019-05-05T00:04:20.389Z,4.51
2019-05-05T00:06:49.406Z,4.61
2019-05-05T00:09:18.448Z,4.73
2019-05-05T00:11:51.941Z,4.81
2019-05-05T00:14:25.047Z,4.80
2019-05-05T00:17:14.490Z,4.78
2019-05-05T00:19:45.449Z,4.78
2019-05-05T00:22:15.213Z,4.74
2019-05-05T00:24:44.526Z,4.70
2019-05-05T00:27:14.986Z,4.74
2019-05-05T00:29:45.331Z,4.63
2019-05-05T00:32:15.320Z,4.54
2019-05-05T00:34:44.893Z,4.52
2019-05-05T00:37:15.139Z,4.47
2019-05-05T00:39:45.244Z,4.52
2019-05-05T00:42:15.546Z,4.56
2019-05-05T00:44:44.891Z,4.50
2019-05-05T00:47:18.298Z,4.54
2019-05-05T00:49:49.434Z,4.67
2019-05-05T00:52:19.033Z,4.66
2019-05-05T00:54:48.059Z,4.61
2019-05-05T00:57:17.160Z,4.54
2019-05-05T00:59:46.213Z,4.48
2019-05-05T01:02:16.975Z,4.32
2019-05-05T01:04:55.067Z,4.22
2019-05-05T01:07:24.812Z,4.33
2019-05-05T01:09:54.383Z,4.39
2019-05-05T01:12:24.452Z,4.36
2019-05-05T01:14:55.273Z,4.28
2019-05-05T01:17:25.273Z,4.32
2019-05-05T01:20:03.127Z,4.32
2019-05-05T01:22:25.708Z,4.45
2019-05-05T01:24:55.373Z,4.56
2019-05-05T01:27:25.555Z,4.38
2019-05-05T01:29:54.799Z,4.46
2019-05-05T01:32:30.953Z,4.39
2019-05-05T01:35:00.148Z,4.35
2019-05-05T01:37:34.823Z,4.36
2019-05-05T01:40:08.820Z,4.30
2019-05-05T01:42:37.820Z,4.17
2019-05-05T01:45:07.686Z,4.12
2019-05-05T01:47:36.767Z,4.02
2019-05-05T01:50:17.580Z,4.02
2019-05-05T01:52:38.491Z,3.97
2019-05-05T01:55:07.533Z,3.84
2019-05-05T01:57:37.020Z,3.76
2019-05-05T02:00:07.760Z,3.94
2019-05-05T02:02:36.825Z,3.93
2019-05-05T02:05:07.544Z,3.89
2019-05-05T02:07:36.972Z,3.68
2019-05-05T02:10:07.694Z,3.59
2019-05-05T02:12:36.839Z,3.72
2019-05-05T02:15:10.121Z,3.76
2019-05-05T02:17:39.313Z,3.82
2019-05-05T02:20:08.707Z,3.72
2019-05-05T02:22:37.718Z,3.55
2019-05-05T02:25:07.702Z,3.68
2019-05-05T02:27:36.788Z,3.78
2019-05-05T02:30:16.231Z,3.67
2019-05-05T02:32:47.501Z,3.59
2019-05-05T02:35:16.993Z,3.53
2019-05-05T02:37:46.308Z,3.49
2019-05-05T02:40:16.899Z,3.47
2019-05-05T02:42:48.168Z,3.59
2019-05-05T02:45:25.030Z,3.68
2019-05-05T02:48:05.872Z,3.58
2019-05-05T02:51:01.241Z,3.41
2019-05-05T02:53:29.459Z,3.38
2019-05-05T02:56:04.182Z,3.33
2019-05-05T02:58:35.581Z,3.18
2019-05-05T03:01:06.687Z,3.26
2019-05-05T03:03:39.005Z,3.26
2019-05-05T03:06:08.190Z,3.38
2019-05-05T03:08:40.199Z,3.33
2019-05-05T03:11:12.028Z,3.35
2019-05-05T03:13:44.210Z,3.32
2019-05-05T03:16:18.882Z,3.25
2019-05-05T03:18:49.072Z,3.19
2019-05-05T03:21:20.419Z,3.09
2019-05-05T03:23:50.475Z,3.18
2019-05-05T03:26:19.942Z,3.07
2019-05-05T03:28:57.087Z,3.29
2019-05-05T03:31:26.839Z,3.22
2019-05-05T03:33:56.513Z,3.02
2019-05-05T03:36:27.255Z,2.95
2019-05-05T03:38:56.731Z,2.92
2019-05-05T03:41:47.182Z,3.25
2019-05-05T03:44:30.930Z,3.33
2019-05-05T03:47:00.651Z,3.19
2019-05-05T03:49:31.018Z,3.09
2019-05-05T03:52:00.720Z,3.15
2019-05-05T03:54:30.583Z,3.25
2019-05-05T03:57:08.604Z,3.27
2019-05-05T03:59:39.815Z,3.14
2019-05-05T04:02:14.218Z,2.85
2019-05-05T04:04:47.709Z,2.75
2019-05-05T04:07:16.848Z,2.81
2019-05-05T04:09:46.579Z,2.89
2019-05-05T04:12:16.412Z,2.86
2019-05-05T04:14:45.990Z,2.83
2019-05-05T04:17:19.392Z,2.83
2019-05-05T04:19:50.087Z,2.95
2019-05-05T04:22:19.118Z,2.85
2019-05-05T04:24:48.638Z,2.87
2019-05-05T04:27:17.697Z,2.92
2019-05-05T04:29:46.762Z,3.03
2019-05-05T04:32:15.792Z,2.98
2019-05-05T04:34:44.836Z,2.83
2019-05-05T04:37:14.879Z,2.82
2019-05-05T04:39:44.632Z,2.84
2019-05-05T04:42:14.287Z,3.19
2019-05-05T04:44:44.932Z,3.32
2019-05-05T04:47:15.760Z,3.40
2019-05-05T04:49:46.445Z,3.47
2019-05-05T04:52:23.659Z,3.59
2019-05-05T04:54:55.862Z,3.54
2019-05-05T04:57:25.151Z,3.53
2019-05-05T04:59:54.319Z,3.48
2019-05-05T05:02:37.727Z,3.51
2019-05-05T05:05:11.849Z,3.31
2019-05-05T05:07:40.867Z,3.26
2019-05-05T05:10:10.461Z,3.56
2019-05-05T05:12:39.490Z,3.56
2019-05-05T05:15:09.071Z,3.40
2019-05-05T05:17:45.624Z,3.39
2019-05-05T05:20:14.716Z,3.28
2019-05-05T05:22:44.071Z,3.26
2019-05-05T05:25:13.676Z,3.40
2019-05-05T05:27:44.343Z,3.43
2019-05-05T05:30:13.998Z,3.54
2019-05-05T05:32:44.546Z,3.68
2019-05-05T05:35:14.201Z,3.48
2019-05-05T05:37:44.737Z,3.62
2019-05-05T05:40:23.584Z,3.50
2019-05-05T05:42:54.219Z,3.61
2019-05-05T05:45:43.549Z,3.57
2019-05-05T05:48:28.923Z,3.65
2019-05-05T05:51:00.048Z,3.69
2019-05-05T05:53:29.060Z,3.67
2019-05-05T05:55:58.168Z,3.73
2019-05-05T05:58:27.233Z,3.81
2019-05-05T06:00:57.743Z,4.45
2019-05-05T06:03:26.767Z,4.59
2019-05-05T06:05:55.822Z,4.44
2019-05-05T06:08:24.936Z,4.63
2019-05-05T06:10:54.738Z,4.81
2019-05-05T06:13:24.307Z,4.90
2019-05-05T06:15:53.791Z,5.38
2019-05-05T06:18:24.356Z,4.67
2019-05-05T06:20:53.865Z,4.77
2019-05-05T06:23:24.065Z,5.00
2019-05-05T06:25:55.208Z,5.46
2019-05-05T06:28:24.260Z,5.57
2019-05-05T06:30:54.679Z,5.56
2019-05-05T06:33:24.304Z,6.13
2019-05-05T06:35:53.826Z,6.25
2019-05-05T06:38:24.235Z,5.87
2019-05-05T06:41:04.702Z,5.89
2019-05-05T06:43:41.158Z,5.83
2019-05-05T06:46:28.251Z,5.92
2019-05-05T06:48:57.360Z,5.84
2019-05-05T06:51:26.411Z,5.87
2019-05-05T06:53:55.447Z,5.86
2019-05-05T06:56:24.662Z,5.47
2019-05-05T06:58:54.111Z,5.56
2019-05-05T07:01:24.769Z,5.54
2019-05-05T07:03:54.207Z,5.13
2019-05-05T07:06:23.992Z,5.41
2019-05-05T07:08:54.558Z,5.44
2019-05-05T07:11:23.983Z,5.35
2019-05-05T07:13:53.740Z,5.56
2019-05-05T07:16:24.367Z,5.73
2019-05-05T07:18:54.077Z,6.06
2019-05-05T07:21:23.812Z,6.07
2019-05-05T07:23:54.025Z,5.94
2019-05-05T07:26:23.736Z,5.94
2019-05-05T07:28:54.197Z,5.71
2019-05-05T07:31:23.906Z,6.03
2019-05-05T07:33:54.426Z,5.76
2019-05-05T07:36:44.519Z,5.92
2019-05-05T07:39:14.444Z,6.00
2019-05-05T07:41:44.801Z,6.14
2019-05-05T07:44:25.713Z,6.26
2019-05-05T07:46:45.289Z,6.40
2019-05-05T07:49:15.214Z,6.38
2019-05-05T07:51:44.481Z,6.04
2019-05-05T07:54:14.474Z,6.01
2019-05-05T07:56:44.458Z,5.98
2019-05-05T07:59:14.627Z,6.09
2019-05-05T08:01:46.521Z,6.11
2019-05-05T08:04:14.598Z,6.04
2019-05-05T08:06:44.535Z,6.10
2019-05-05T08:09:14.682Z,6.10
2019-05-05T08:11:43.899Z,6.25
2019-05-05T08:14:14.543Z,6.18
2019-05-05T08:16:53.612Z,6.02
2019-05-05T08:19:34.634Z,6.30
2019-05-05T08:22:04.393Z,6.55
2019-05-05T08:24:51.593Z,6.46
2019-05-05T08:27:38.698Z,6.75
2019-05-05T08:30:26.406Z,6.71
2019-05-05T08:32:55.817Z,6.83
2019-05-05T08:35:24.933Z,6.86
2019-05-05T08:37:54.369Z,6.96
2019-05-05T08:40:24.053Z,6.74
2019-05-05T08:42:53.900Z,6.95
2019-05-05T08:45:26.155Z,7.05
2019-05-05T08:47:54.313Z,6.97
2019-05-05T08:50:26.456Z,6.97
2019-05-05T08:52:54.333Z,7.17
2019-05-05T08:55:24.915Z,7.18
2019-05-05T08:57:54.267Z,7.18
2019-05-05T09:00:24.498Z,7.43
2019-05-05T09:02:54.354Z,7.43
2019-05-05T09:05:23.896Z,7.62
2019-05-05T09:07:54.763Z,7.58
2019-05-05T09:10:23.950Z,7.58
2019-05-05T09:12:54.286Z,7.71
2019-05-05T09:15:24.250Z,7.71
2019-05-05T09:17:54.443Z,7.74
2019-05-05T09:20:24.283Z,7.74
2019-05-05T09:22:54.588Z,8.07
2019-05-05T09:25:26.074Z,8.04
2019-05-05T09:28:05.548Z,8.08
2019-05-05T09:30:40.464Z,8.54
2019-05-05T09:33:09.660Z,9.23
2019-05-05T09:35:38.701Z,9.73
2019-05-05T09:38:07.949Z,9.73
2019-05-05T09:40:39.483Z,10.04
2019-05-05T09:43:09.895Z,10.09
2019-05-05T09:45:39.707Z,10.62
2019-05-05T09:48:08.986Z,10.77
2019-05-05T09:50:38.062Z,10.60
2019-05-05T09:53:07.226Z,10.89
2019-05-05T09:55:36.406Z,11.18
2019-05-05T09:58:05.698Z,11.77
2019-05-05T10:00:36.374Z,10.94
2019-05-05T10:03:05.509Z,12.13
2019-05-05T10:05:34.741Z,12.47
2019-05-05T10:08:03.937Z,12.09
2019-05-05T10:10:33.692Z,11.16
2019-05-05T10:13:04.154Z,10.84
2019-05-05T10:15:33.890Z,11.33
2019-05-05T10:18:03.504Z,11.45
2019-05-05T10:20:34.385Z,11.83
2019-05-05T10:23:03.829Z,11.46
2019-05-05T10:25:37.220Z,10.80
2019-05-05T10:28:06.544Z,10.42
2019-05-05T10:30:36.400Z,10.07
2019-05-05T10:33:05.653Z,9.72
2019-05-05T10:35:34.742Z,9.43
2019-05-05T10:38:04.028Z,9.39
2019-05-05T10:40:34.619Z,9.05
2019-05-05T10:43:04.733Z,8.84
2019-05-05T10:45:34.514Z,9.26
2019-05-05T10:48:04.204Z,10.67
2019-05-05T10:50:34.418Z,11.59
2019-05-05T10:53:04.648Z,11.76
2019-05-05T10:55:34.825Z,12.14
2019-05-05T10:58:04.177Z,12.18
2019-05-05T11:00:45.196Z,12.23
2019-05-05T11:03:15.171Z,12.22
2019-05-05T11:05:45.231Z,12.22
2019-05-05T11:08:14.883Z,12.05
2019-05-05T11:10:45.183Z,12.05
2019-05-05T11:13:14.504Z,11.35
2019-05-05T11:15:45.103Z,11.26
2019-05-05T11:18:15.106Z,11.09
2019-05-05T11:20:45.257Z,11.51
2019-05-05T11:23:15.153Z,11.42
2019-05-05T11:25:44.746Z,11.36
2019-05-05T11:28:14.220Z,10.95
2019-05-05T11:30:47.008Z,10.72
2019-05-05T11:33:29.626Z,10.43
2019-05-05T11:36:00.615Z,10.18
2019-05-05T11:38:29.632Z,10.22
2019-05-05T11:40:58.746Z,10.47
2019-05-05T11:43:27.814Z,10.41
2019-05-05T11:45:57.199Z,11.35
2019-05-05T11:48:26.217Z,11.64
2019-05-05T11:50:55.531Z,11.91
2019-05-05T11:53:25.206Z,11.92
2019-05-05T11:55:55.115Z,11.61
2019-05-05T11:58:26.132Z,11.41
2019-05-05T12:00:55.555Z,11.24
2019-05-05T12:03:24.721Z,11.00
2019-05-05T12:05:53.784Z,10.78
2019-05-05T12:08:23.877Z,10.66
2019-05-05T12:11:00.567Z,11.39
2019-05-05T12:13:29.781Z,11.80
2019-05-05T12:16:04.561Z,12.38
2019-05-05T12:18:34.550Z,12.55
2019-05-05T12:21:05.047Z,12.67
2019-05-05T12:23:34.803Z,12.88
2019-05-05T12:26:24.334Z,12.13
2019-05-05T12:28:55.105Z,12.07
2019-05-05T12:31:28.770Z,11.91
2019-05-05T12:33:58.269Z,11.66
2019-05-05T12:36:27.311Z,11.46
2019-05-05T12:38:56.359Z,11.08
2019-05-05T12:41:25.512Z,10.72
2019-05-05T12:43:55.090Z,10.39
2019-05-05T12:46:44.102Z,10.07
2019-05-05T12:49:13.979Z,10.18
2019-05-05T12:51:43.641Z,10.19
2019-05-05T12:54:14.645Z,10.19
2019-05-05T12:56:44.536Z,10.16
2019-05-05T12:59:15.643Z,10.31
2019-05-05T13:01:44.875Z,10.22
2019-05-05T13:04:14.256Z,10.30
2019-05-05T13:06:45.052Z,10.48
2019-05-05T13:09:16.190Z,10.99
2019-05-05T13:11:45.206Z,11.64
2019-05-05T13:14:14.398Z,12.25
2019-05-05T13:16:52.374Z,12.66
2019-05-05T13:19:16.589Z,12.90
2019-05-05T13:21:49.938Z,12.34
2019-05-05T13:24:29.763Z,12.30
2019-05-05T13:27:19.098Z,12.14
2019-05-05T13:29:44.280Z,11.96
2019-05-05T13:32:14.182Z,12.17
2019-05-05T13:34:43.860Z,12.49
2019-05-05T13:37:14.090Z,12.42
2019-05-05T13:39:44.534Z,12.52
2019-05-05T13:42:14.001Z,12.15
2019-05-05T13:44:50.665Z,12.09
2019-05-05T13:47:19.782Z,12.10
2019-05-05T13:49:49.952Z,12.40
2019-05-05T13:52:19.008Z,12.58
2019-05-05T13:54:48.263Z,13.03
2019-05-05T13:57:17.290Z,13.16
2019-05-05T13:59:50.914Z,13.00
2019-05-05T14:02:20.801Z,13.15
2019-05-05T14:04:49.975Z,13.28
2019-05-05T14:07:24.465Z,13.02
2019-05-05T14:09:54.930Z,13.24
2019-05-05T14:12:24.602Z,13.47
2019-05-05T14:15:03.938Z,13.53
2019-05-05T14:17:33.635Z,13.37
2019-05-05T14:20:11.555Z,13.45
2019-05-05T14:22:35.967Z,13.55
2019-05-05T14:25:08.329Z,13.25
2019-05-05T14:27:37.426Z,13.05
2019-05-05T14:30:23.625Z,12.95
2019-05-05T14:32:54.533Z,13.09
2019-05-05T14:35:25.594Z,12.61
2019-05-05T14:37:56.325Z,12.97
2019-05-05T14:40:25.637Z,12.76
2019-05-05T14:42:54.714Z,12.59
2019-05-05T14:45:24.104Z,12.33
2019-05-05T14:47:53.665Z,12.22
2019-05-05T14:50:24.211Z,12.27
2019-05-05T14:52:54.164Z,12.69
2019-05-05T14:55:25.455Z,12.60
2019-05-05T14:57:54.270Z,12.52
2019-05-05T15:00:25.220Z,12.57
2019-05-05T15:02:55.182Z,12.42
2019-05-05T15:05:44.474Z,12.35
2019-05-05T15:08:18.240Z,12.21
2019-05-05T15:10:58.056Z,12.49
2019-05-05T15:13:27.139Z,12.49
2019-05-05T15:15:56.413Z,12.60
2019-05-05T15:18:25.518Z,12.78
2019-05-05T15:20:54.909Z,12.52
2019-05-05T15:23:24.184Z,12.16
2019-05-05T15:25:53.971Z,12.04
2019-05-05T15:28:24.498Z,12.31
2019-05-05T15:30:54.636Z,12.27
2019-05-05T15:33:24.436Z,11.98
2019-05-05T15:36:14.682Z,12.03
2019-05-05T15:38:43.921Z,11.83
2019-05-05T15:41:14.528Z,11.91
2019-05-05T15:43:44.171Z,11.91
2019-05-05T15:46:15.117Z,11.91
2019-05-05T15:48:44.081Z,11.71
2019-05-05T15:51:14.460Z,11.54
2019-05-05T15:53:43.844Z,11.48
2019-05-05T15:56:13.955Z,11.46
2019-05-05T15:58:43.509Z,11.58
2019-05-05T16:01:14.279Z,11.71
2019-05-05T16:03:43.681Z,11.87
2019-05-05T16:06:14.265Z,11.91
2019-05-05T16:08:44.494Z,12.15
2019-05-05T16:11:14.314Z,12.49
2019-05-05T16:13:44.034Z,12.78
2019-05-05T16:16:23.927Z,12.97
2019-05-05T16:19:05.610Z,12.73
2019-05-05T16:21:45.208Z,12.67
2019-05-05T16:24:16.166Z,12.49
2019-05-05T16:26:45.402Z,12.55
2019-05-05T16:29:14.859Z,12.45
2019-05-05T16:31:44.007Z,12.87
2019-05-05T16:34:14.298Z,12.57
2019-05-05T16:36:44.048Z,12.60
2019-05-05T16:39:13.849Z,12.21
2019-05-05T16:41:44.238Z,12.20
2019-05-05T16:44:15.566Z,12.04
2019-05-05T16:46:44.157Z,12.24
2019-05-05T16:49:14.018Z,11.70
2019-05-05T16:51:47.792Z,11.81
2019-05-05T16:54:18.463Z,11.25
2019-05-05T16:56:47.899Z,11.54
2019-05-05T16:59:16.910Z,11.50
2019-05-05T17:01:46.094Z,11.40
2019-05-05T17:04:15.138Z,11.25
2019-05-05T17:06:45.829Z,11.01
2019-05-05T17:09:15.115Z,10.75
2019-05-05T17:11:45.800Z,10.58
2019-05-05T17:14:16.470Z,10.69
2019-05-05T17:16:50.198Z,10.67
2019-05-05T17:19:23.530Z,10.38
2019-05-05T17:21:54.228Z,10.37
2019-05-05T17:24:23.975Z,10.45
2019-05-05T17:26:54.980Z,10.59
2019-05-05T17:29:24.327Z,10.74
2019-05-05T17:31:54.093Z,10.78
2019-05-05T17:34:24.677Z,10.77
2019-05-05T17:36:54.216Z,10.86
2019-05-05T17:39:24.934Z,10.63
2019-05-05T17:41:58.558Z,10.73
2019-05-05T17:44:33.685Z,10.77
2019-05-05T17:47:24.350Z,10.70
2019-05-05T17:50:06.969Z,10.53
2019-05-05T17:52:37.689Z,10.45
2019-05-05T17:55:08.477Z,10.38
2019-05-05T17:57:37.498Z,10.34
2019-05-05T18:00:08.897Z,10.38
2019-05-05T18:02:37.987Z,10.41
2019-05-05T18:05:07.416Z,10.31
2019-05-05T18:07:38.095Z,10.24
2019-05-05T18:10:13.494Z,10.46
2019-05-05T18:12:56.675Z,10.36
2019-05-05T18:15:43.576Z,10.38
2019-05-05T18:18:13.930Z,10.42
2019-05-05T18:20:44.945Z,10.54
2019-05-05T18:23:14.468Z,10.35
2019-05-05T18:25:44.201Z,10.28
2019-05-05T18:28:19.711Z,10.18
2019-05-05T18:30:45.359Z,10.15
2019-05-05T18:33:14.837Z,10.19
2019-05-05T18:35:44.356Z,10.03
2019-05-05T18:38:13.869Z,9.98
2019-05-05T18:40:43.535Z,9.97
2019-05-05T18:43:14.401Z,9.85
2019-05-05T18:45:44.154Z,9.69
2019-05-05T18:48:14.272Z,9.69
2019-05-05T18:50:43.377Z,9.60
2019-05-05T18:53:14.038Z,9.59
2019-05-05T18:55:44.632Z,9.50
2019-05-05T18:58:26.259Z,9.44
2019-05-05T19:00:59.707Z,9.47
2019-05-05T19:03:30.462Z,9.27
2019-05-05T19:06:01.290Z,9.27
2019-05-05T19:08:31.998Z,9.23
2019-05-05T19:11:03.715Z,9.17
2019-05-05T19:13:35.518Z,9.17
2019-05-05T19:16:04.683Z,9.07
2019-05-05T19:18:35.921Z,9.12
2019-05-05T19:21:07.148Z,9.02
2019-05-05T19:23:36.210Z,8.89
2019-05-05T19:26:07.596Z,8.61
2019-05-05T19:28:44.264Z,8.65
2019-05-05T19:31:07.137Z,8.97
2019-05-05T19:33:36.272Z,8.92
2019-05-05T19:36:05.493Z,9.00
2019-05-05T19:38:34.754Z,8.94
2019-05-05T19:41:04.142Z,8.90
2019-05-05T19:43:34.019Z,9.08
2019-05-05T19:46:05.465Z,9.01
2019-05-05T19:48:34.642Z,8.93
2019-05-05T19:51:05.768Z,8.90
2019-05-05T19:53:35.570Z,9.01
2019-05-05T19:56:04.977Z,8.98
2019-05-05T19:58:36.354Z,8.97
2019-05-05T20:01:05.090Z,8.94
2019-05-05T20:03:35.123Z,8.95
2019-05-05T20:06:05.337Z,9.01
2019-05-05T20:08:41.067Z,8.70
2019-05-05T20:11:05.797Z,8.66
2019-05-05T20:13:35.017Z,8.57
2019-05-05T20:16:20.928Z,8.50
2019-05-05T20:18:50.524Z,8.65
2019-05-05T20:21:19.622Z,8.58
2019-05-05T20:23:48.754Z,8.79
2019-05-05T20:26:17.765Z,8.68
2019-05-05T20:28:46.891Z,8.72
2019-05-05T20:31:15.931Z,8.82
2019-05-05T20:33:58.178Z,8.55
2019-05-05T20:36:29.338Z,8.55
2019-05-05T20:38:58.390Z,8.65
2019-05-05T20:41:27.542Z,8.63
2019-05-05T20:43:56.711Z,8.55
2019-05-05T20:46:25.737Z,8.54
2019-05-05T20:48:55.046Z,8.57
2019-05-05T20:51:24.347Z,8.56
2019-05-05T20:53:54.206Z,8.46
2019-05-05T20:56:23.860Z,8.14
2019-05-05T20:58:54.811Z,8.13
2019-05-05T21:01:24.605Z,8.10
2019-05-05T21:03:53.991Z,7.97
2019-05-05T21:06:24.571Z,7.97
2019-05-05T21:08:54.135Z,7.84
2019-05-05T21:11:24.634Z,7.80
2019-05-05T21:13:54.436Z,7.93
2019-05-05T21:16:23.840Z,7.92
2019-05-05T21:18:53.879Z,7.92
2019-05-05T21:21:25.033Z,7.94
2019-05-05T21:23:55.714Z,7.91
2019-05-05T21:26:26.391Z,7.92
2019-05-05T21:28:55.470Z,7.92
2019-05-05T21:31:24.488Z,7.74
2019-05-05T21:33:54.763Z,7.91
2019-05-05T21:36:24.358Z,7.91
2019-05-05T21:38:54.827Z,7.97
2019-05-05T21:41:24.507Z,8.02
2019-05-05T21:43:54.175Z,8.02
2019-05-05T21:46:24.023Z,7.91
2019-05-05T21:48:54.328Z,7.85
2019-05-05T21:51:28.241Z,7.85
2019-05-05T21:53:58.927Z,7.98
2019-05-05T21:56:45.924Z,7.96
2019-05-05T21:59:14.984Z,7.88
2019-05-05T22:01:49.059Z,8.01
2019-05-05T22:04:15.252Z,8.01
2019-05-05T22:06:44.291Z,8.03
2019-05-05T22:09:14.677Z,8.01
2019-05-05T22:11:44.295Z,8.07
2019-05-05T22:14:13.985Z,8.07
2019-05-05T22:16:44.597Z,8.15
2019-05-05T22:19:14.576Z,8.15
2019-05-05T22:21:45.587Z,8.07
2019-05-05T22:24:22.315Z,8.06
2019-05-05T22:26:54.192Z,8.13
2019-05-05T22:29:24.966Z,7.95
2019-05-05T22:31:54.584Z,7.95
2019-05-05T22:34:24.124Z,8.07
2019-05-05T22:36:53.425Z,8.02
2019-05-05T22:39:24.367Z,7.87
2019-05-05T22:41:54.329Z,7.87
2019-05-05T22:44:24.362Z,7.93
2019-05-05T22:46:53.939Z,7.80
2019-05-05T22:49:24.159Z,7.80
2019-05-05T22:51:54.144Z,7.77
2019-05-05T22:54:24.126Z,7.77
2019-05-05T22:56:53.901Z,7.64
2019-05-05T22:59:24.177Z,7.80
2019-05-05T23:01:54.201Z,7.74
2019-05-05T23:04:25.150Z,7.74
2019-05-05T23:07:03.686Z,7.50
2019-05-05T23:09:32.326Z,7.73
2019-05-05T23:12:01.379Z,7.73
2019-05-05T23:14:30.523Z,7.47
2019-05-05T23:17:05.615Z,7.47
2019-05-05T23:19:42.051Z,7.48
2019-05-05T23:22:14.622Z,7.33
2019-05-05T23:24:45.290Z,7.32
2019-05-05T23:27:34.224Z,7.32
2019-05-05T23:30:03.243Z,7.24
2019-05-05T23:32:34.066Z,7.31
2019-05-05T23:35:02.962Z,7.42
2019-05-05T23:37:34.213Z,7.25
2019-05-05T23:40:03.767Z,7.25
2019-05-05T23:42:33.833Z,7.33
2019-05-05T23:45:04.427Z,7.19
2019-05-05T23:47:34.536Z,7.26
2019-05-05T23:50:05.599Z,7.26
2019-05-05T23:52:35.064Z,7.18
2019-05-05T23:55:06.298Z,7.21
2019-05-05T23:57:35.344Z,7.21
